sensor_id;sensor_type;location;lat;lon;timestamp;P1;durP1;ratioP1;P2;durP2;ratioP2
6926;SDS011;3503;50.07605000;8.86719200;2022-10-31T00:05:37;7.00;;;3.90;;
6926;SDS011;3503;50.07605000;8.86719200;2022-10-31T00:20:43;13.17;;;2.80;;
6926;SDS011;3503;50.07605000;8.86719200;2022-10-31T00:35:50;6.57;;;3.10;;
6926;SDS011;3503;50.07605000;8.86719200;2022-10-31T00:50:53;6.60;;;3.17;;
6926;SDS011;3503;50.07605000;8.86719200;2022-10-31T01:05:56;7.67;;;3.40;;
6926;SDS011;3503;50.07605000;8.86719200;2022-10-31T01:21:01;6.50;;;2.83;;
6926;SDS011;3503;50.07605000;8.86719200;2022-10-31T01:36:12;9.73;;;3.80;;
6926;SDS011;3503;50.07605000;8.86719200;2022-10-31T01:51:19;9.10;;;3.30;;
6926;SDS011;3503;50.07605000;8.86719200;2022-10-31T02:06:26;8.30;;;3.30;;
6926;SDS011;3503;50.07605000;8.86719200;2022-10-31T02:21:36;6.93;;;3.47;;
6926;SDS011;3503;50.07605000;8.86719200;2022-10-31T02:36:46;10.90;;;3.77;;
6926;SDS011;3503;50.07605000;8.86719200;2022-10-31T02:51:53;7.97;;;3.40;;
6926;SDS011;3503;50.07605000;8.86719200;2022-10-31T03:06:57;6.27;;;3.00;;
6926;SDS011;3503;50.07605000;8.86719200;2022-10-31T03:22:03;11.40;;;3.67;;
6926;SDS011;3503;50.07605000;8.86719200;2022-10-31T03:37:10;16.80;;;3.00;;
6926;SDS011;3503;50.07605000;8.86719200;2022-10-31T03:52:16;9.60;;;3.13;;
6926;SDS011;3503;50.07605000;8.86719200;2022-10-31T04:07:23;6.93;;;3.30;;
6926;SDS011;3503;50.07605000;8.86719200;2022-10-31T04:22:28;11.03;;;4.83;;
6926;SDS011;3503;50.07605000;8.86719200;2022-10-31T04:37:31;7.20;;;3.50;;
6926;SDS011;3503;50.07605000;8.86719200;2022-10-31T04:52:38;6.63;;;3.90;;
6926;SDS011;3503;50.07605000;8.86719200;2022-10-31T05:07:41;7.63;;;3.93;;
6926;SDS011;3503;50.07605000;8.86719200;2022-10-31T05:22:45;8.63;;;4.37;;
6926;SDS011;3503;50.07605000;8.86719200;2022-10-31T05:37:50;6.60;;;4.00;;
6926;SDS011;3503;50.07605000;8.86719200;2022-10-31T05:52:56;8.17;;;4.30;;
6926;SDS011;3503;50.07605000;8.86719200;2022-10-31T06:07:59;7.93;;;3.70;;
6926;SDS011;3503;50.07605000;8.86719200;2022-10-31T06:23:02;7.67;;;4.60;;
6926;SDS011;3503;50.07605000;8.86719200;2022-10-31T06:38:05;5.50;;;3.10;;
6926;SDS011;3503;50.07605000;8.86719200;2022-10-31T06:53:08;11.33;;;3.37;;
6926;SDS011;3503;50.07605000;8.86719200;2022-10-31T07:08:11;12.00;;;4.10;;
6926;SDS011;3503;50.07605000;8.86719200;2022-10-31T07:23:15;9.43;;;4.40;;
6926;SDS011;3503;50.07605000;8.86719200;2022-10-31T07:38:18;7.20;;;3.87;;
6926;SDS011;3503;50.07605000;8.86719200;2022-10-31T07:53:20;10.30;;;4.07;;
6926;SDS011;3503;50.07605000;8.86719200;2022-10-31T08:08:23;8.43;;;4.50;;
6926;SDS011;3503;50.07605000;8.86719200;2022-10-31T08:23:29;9.40;;;4.30;;
6926;SDS011;3503;50.07605000;8.86719200;2022-10-31T08:38:32;11.70;;;4.90;;
6926;SDS011;3503;50.07605000;8.86719200;2022-10-31T08:53:34;8.13;;;4.53;;
6926;SDS011;3503;50.07605000;8.86719200;2022-10-31T09:08:37;9.77;;;5.57;;
6926;SDS011;3503;50.07605000;8.86719200;2022-10-31T09:23:40;15.30;;;6.47;;
6926;SDS011;3503;50.07605000;8.86719200;2022-10-31T09:38:43;11.77;;;5.90;;
6926;SDS011;3503;50.07605000;8.86719200;2022-10-31T09:53:48;14.43;;;5.30;;
6926;SDS011;3503;50.07605000;8.86719200;2022-10-31T10:08:52;10.53;;;4.60;;
6926;SDS011;3503;50.07605000;8.86719200;2022-10-31T10:23:57;6.10;;;4.33;;
6926;SDS011;3503;50.07605000;8.86719200;2022-10-31T10:39:08;10.43;;;4.60;;
6926;SDS011;3503;50.07605000;8.86719200;2022-10-31T10:54:29;9.30;;;4.70;;
6926;SDS011;3503;50.07605000;8.86719200;2022-10-31T11:09:41;6.63;;;4.23;;
6926;SDS011;3503;50.07605000;8.86719200;2022-10-31T11:24:44;8.80;;;4.40;;
6926;SDS011;3503;50.07605000;8.86719200;2022-10-31T11:39:48;6.73;;;4.10;;
6926;SDS011;3503;50.07605000;8.86719200;2022-10-31T11:54:55;11.90;;;3.97;;
6926;SDS011;3503;50.07605000;8.86719200;2022-10-31T12:09:58;6.50;;;3.10;;
6926;SDS011;3503;50.07605000;8.86719200;2022-10-31T12:25:08;10.07;;;4.70;;
6926;SDS011;3503;50.07605000;8.86719200;2022-10-31T12:55:58;7.23;;;3.60;;
6926;SDS011;3503;50.07605000;8.86719200;2022-10-31T13:11:09;7.40;;;3.63;;
6926;SDS011;3503;50.07605000;8.86719200;2022-10-31T13:26:15;7.83;;;3.60;;
6926;SDS011;3503;50.07605000;8.86719200;2022-10-31T13:41:32;10.73;;;3.83;;
6926;SDS011;3503;50.07605000;8.86719200;2022-10-31T13:56:39;8.30;;;3.03;;
6926;SDS011;3503;50.07605000;8.86719200;2022-10-31T14:11:42;8.40;;;3.10;;
6926;SDS011;3503;50.07605000;8.86719200;2022-10-31T14:26:54;6.20;;;3.50;;
6926;SDS011;3503;50.07605000;8.86719200;2022-10-31T14:42:00;14.03;;;4.03;;
6926;SDS011;3503;50.07605000;8.86719200;2022-10-31T14:57:15;9.20;;;5.37;;
6926;SDS011;3503;50.07605000;8.86719200;2022-10-31T15:12:24;9.83;;;4.70;;
6926;SDS011;3503;50.07605000;8.86719200;2022-10-31T15:27:28;8.57;;;4.17;;
6926;SDS011;3503;50.07605000;8.86719200;2022-10-31T15:42:32;12.43;;;5.20;;
6926;SDS011;3503;50.07605000;8.86719200;2022-10-31T15:57:39;5.20;;;3.70;;
6926;SDS011;3503;50.07605000;8.86719200;2022-10-31T16:12:44;11.73;;;5.10;;
6926;SDS011;3503;50.07605000;8.86719200;2022-10-31T16:27:48;14.03;;;5.27;;
6926;SDS011;3503;50.07605000;8.86719200;2022-10-31T16:42:53;16.20;;;4.87;;
6926;SDS011;3503;50.07605000;8.86719200;2022-10-31T16:57:56;12.37;;;4.50;;
6926;SDS011;3503;50.07605000;8.86719200;2022-10-31T17:13:00;13.63;;;5.13;;
6926;SDS011;3503;50.07605000;8.86719200;2022-10-31T17:28:03;12.60;;;5.70;;
6926;SDS011;3503;50.07605000;8.86719200;2022-10-31T17:43:07;10.00;;;4.80;;
6926;SDS011;3503;50.07605000;8.86719200;2022-10-31T17:58:10;13.80;;;5.43;;
6926;SDS011;3503;50.07605000;8.86719200;2022-10-31T18:13:14;20.47;;;6.23;;
6926;SDS011;3503;50.07605000;8.86719200;2022-10-31T18:28:16;10.23;;;6.23;;
6926;SDS011;3503;50.07605000;8.86719200;2022-10-31T18:43:19;21.53;;;8.57;;
6926;SDS011;3503;50.07605000;8.86719200;2022-10-31T18:58:22;17.10;;;7.90;;
6926;SDS011;3503;50.07605000;8.86719200;2022-10-31T19:13:25;14.63;;;8.10;;
6926;SDS011;3503;50.07605000;8.86719200;2022-10-31T19:28:29;18.00;;;9.37;;
6926;SDS011;3503;50.07605000;8.86719200;2022-10-31T19:43:32;11.43;;;7.33;;
6926;SDS011;3503;50.07605000;8.86719200;2022-10-31T19:58:35;21.93;;;9.50;;
6926;SDS011;3503;50.07605000;8.86719200;2022-10-31T20:13:38;14.50;;;7.70;;
6926;SDS011;3503;50.07605000;8.86719200;2022-10-31T20:28:41;24.07;;;9.23;;
6926;SDS011;3503;50.07605000;8.86719200;2022-10-31T20:43:44;15.40;;;7.90;;
6926;SDS011;3503;50.07605000;8.86719200;2022-10-31T20:58:48;15.60;;;7.93;;
6926;SDS011;3503;50.07605000;8.86719200;2022-10-31T21:13:51;19.27;;;9.13;;
6926;SDS011;3503;50.07605000;8.86719200;2022-10-31T21:28:55;14.97;;;7.50;;
6926;SDS011;3503;50.07605000;8.86719200;2022-10-31T21:43:59;12.60;;;6.17;;
6926;SDS011;3503;50.07605000;8.86719200;2022-10-31T21:59:02;10.17;;;5.50;;
6926;SDS011;3503;50.07605000;8.86719200;2022-10-31T22:14:05;14.60;;;7.43;;
6926;SDS011;3503;50.07605000;8.86719200;2022-10-31T22:29:10;10.23;;;6.13;;
6926;SDS011;3503;50.07605000;8.86719200;2022-10-31T22:44:14;15.33;;;6.23;;
6926;SDS011;3503;50.07605000;8.86719200;2022-10-31T22:59:17;10.03;;;5.33;;
6926;SDS011;3503;50.07605000;8.86719200;2022-10-31T23:14:19;14.77;;;6.23;;
6926;SDS011;3503;50.07605000;8.86719200;2022-10-31T23:29:22;16.20;;;5.50;;
6926;SDS011;3503;50.07605000;8.86719200;2022-10-31T23:44:25;10.03;;;4.57;;
6926;SDS011;3503;50.07605000;8.86719200;2022-10-31T23:59:28;11.07;;;5.47;;
